createdAt,value
2017-10-14T00:00:32.422Z,5.30
2017-10-14T00:03:01.279Z,5.57
2017-10-14T00:05:30.175Z,4.90
2017-10-14T00:07:59.028Z,5.00
2017-10-14T00:10:27.925Z,4.83
2017-10-14T00:12:56.819Z,4.90
2017-10-14T00:15:25.674Z,4.33
2017-10-14T00:17:54.545Z,5.07
2017-10-14T00:20:23.400Z,5.23
2017-10-14T00:22:52.302Z,4.47
2017-10-14T00:25:21.167Z,4.60
2017-10-14T00:27:50.020Z,4.03
2017-10-14T00:30:18.884Z,4.67
2017-10-14T00:32:47.734Z,5.63
2017-10-14T00:35:16.621Z,4.90
2017-10-14T00:37:45.479Z,4.13
2017-10-14T00:40:14.515Z,4.90
2017-10-14T00:42:43.374Z,5.07
2017-10-14T00:45:12.243Z,4.17
2017-10-14T00:47:41.117Z,3.70
2017-10-14T00:50:09.965Z,4.47
2017-10-14T00:52:38.847Z,4.43
2017-10-14T00:55:07.720Z,4.50
2017-10-14T00:57:36.602Z,5.17
2017-10-14T01:00:05.482Z,5.03
2017-10-14T01:02:34.373Z,5.10
2017-10-14T01:05:03.229Z,4.70
2017-10-14T01:07:32.115Z,3.83
2017-10-14T01:10:00.966Z,4.30
2017-10-14T01:12:29.867Z,4.30
2017-10-14T01:14:58.759Z,4.63
2017-10-14T01:17:27.630Z,4.60
2017-10-14T01:19:56.554Z,5.27
2017-10-14T01:22:25.445Z,5.27
2017-10-14T01:24:54.325Z,4.43
2017-10-14T01:27:23.181Z,4.60
2017-10-14T01:29:52.024Z,4.03
2017-10-14T01:32:20.887Z,4.70
2017-10-14T01:34:49.768Z,4.57
2017-10-14T01:37:18.648Z,4.80
2017-10-14T01:39:47.500Z,5.37
2017-10-14T01:42:16.410Z,4.43
2017-10-14T01:44:45.269Z,4.57
2017-10-14T01:47:14.122Z,4.40
2017-10-14T01:49:42.992Z,5.57
2017-10-14T01:52:11.847Z,4.87
2017-10-14T01:54:40.712Z,4.70
2017-10-14T01:57:09.563Z,6.50
2017-10-14T01:59:38.492Z,5.60
2017-10-14T02:02:07.339Z,6.27
2017-10-14T02:04:36.223Z,4.50
2017-10-14T02:07:05.103Z,4.20
2017-10-14T02:09:33.968Z,4.70
2017-10-14T02:12:02.862Z,5.50
2017-10-14T02:14:31.727Z,4.23
2017-10-14T02:17:00.705Z,5.47
2017-10-14T02:19:29.569Z,4.50
2017-10-14T02:21:58.419Z,4.53
2017-10-14T02:24:27.299Z,4.83
2017-10-14T02:26:56.149Z,4.60
2017-10-14T02:29:25.051Z,4.63
2017-10-14T02:31:53.910Z,4.97
2017-10-14T02:34:22.782Z,4.20
2017-10-14T02:36:51.639Z,5.00
2017-10-14T02:39:20.510Z,5.17
2017-10-14T02:41:49.375Z,4.43
2017-10-14T02:44:18.262Z,5.03
2017-10-14T02:46:47.123Z,4.93
2017-10-14T02:49:15.966Z,5.23
2017-10-14T02:51:44.844Z,4.90
2017-10-14T02:54:13.704Z,5.10
2017-10-14T02:56:42.566Z,4.83
2017-10-14T02:59:11.414Z,5.27
2017-10-14T03:01:40.395Z,4.60
2017-10-14T03:04:09.255Z,4.90
2017-10-14T03:06:38.123Z,5.47
2017-10-14T03:09:07.002Z,4.80
2017-10-14T03:11:35.860Z,4.50
2017-10-14T03:14:04.783Z,4.83
2017-10-14T03:16:33.639Z,4.23
2017-10-14T03:19:02.637Z,5.00
2017-10-14T03:21:31.480Z,4.57
2017-10-14T03:24:00.352Z,4.73
2017-10-14T03:26:29.242Z,4.83
2017-10-14T03:28:58.091Z,4.60
2017-10-14T03:31:26.971Z,4.73
2017-10-14T03:33:55.825Z,4.70
2017-10-14T03:36:24.738Z,5.33
2017-10-14T03:38:53.593Z,4.30
2017-10-14T03:41:22.457Z,4.50
2017-10-14T03:43:51.330Z,4.43
2017-10-14T03:46:20.171Z,4.57
2017-10-14T03:48:49.044Z,4.57
2017-10-14T03:51:17.896Z,4.33
2017-10-14T03:53:46.767Z,5.00
2017-10-14T03:56:15.624Z,4.97
2017-10-14T03:58:44.495Z,4.90
2017-10-14T04:01:13.370Z,4.60
2017-10-14T04:03:42.270Z,5.17
2017-10-14T04:06:11.175Z,4.57
2017-10-14T04:08:40.037Z,5.30
2017-10-14T04:11:08.919Z,3.87
2017-10-14T04:13:37.763Z,4.80
2017-10-14T04:16:06.650Z,4.37
2017-10-14T04:18:35.512Z,3.73
2017-10-14T04:21:04.371Z,4.30
2017-10-14T04:23:33.269Z,4.60
2017-10-14T04:26:02.118Z,4.13
2017-10-14T04:28:30.983Z,5.73
2017-10-14T04:30:59.839Z,4.80
2017-10-14T04:33:28.757Z,4.93
2017-10-14T04:35:57.606Z,4.23
2017-10-14T04:38:26.636Z,4.67
2017-10-14T04:40:55.488Z,4.70
2017-10-14T04:43:24.343Z,4.40
2017-10-14T04:45:53.211Z,4.20
2017-10-14T04:48:22.050Z,4.40
2017-10-14T04:50:50.921Z,4.23
2017-10-14T04:53:19.823Z,4.00
2017-10-14T04:55:48.716Z,4.60
2017-10-14T04:58:17.651Z,4.70
2017-10-14T05:00:46.505Z,4.90
2017-10-14T05:03:15.370Z,4.90
2017-10-14T05:05:44.239Z,4.80
2017-10-14T05:08:13.108Z,5.47
2017-10-14T05:10:41.961Z,5.17
2017-10-14T05:13:10.856Z,4.67
2017-10-14T05:15:39.714Z,5.50
2017-10-14T05:18:08.586Z,4.50
2017-10-14T05:20:37.474Z,5.43
2017-10-14T05:23:06.362Z,4.97
2017-10-14T05:25:35.234Z,4.77
2017-10-14T05:28:04.091Z,5.07
2017-10-14T05:30:32.992Z,5.10
2017-10-14T05:33:01.855Z,4.60
2017-10-14T05:35:30.710Z,4.90
2017-10-14T05:37:59.575Z,4.97
2017-10-14T05:40:28.427Z,4.60
2017-10-14T05:42:57.309Z,5.07
2017-10-14T05:45:26.169Z,4.93
2017-10-14T05:47:55.062Z,5.20
2017-10-14T05:50:24.302Z,5.20
2017-10-14T05:52:53.158Z,5.10
2017-10-14T05:55:22.023Z,5.23
2017-10-14T05:57:50.874Z,5.00
2017-10-14T06:00:19.743Z,4.90
2017-10-14T06:02:48.610Z,5.93
2017-10-14T06:05:17.509Z,5.40
2017-10-14T06:07:46.354Z,5.20
2017-10-14T06:10:15.189Z,7.23
2017-10-14T06:12:44.059Z,5.60
2017-10-14T06:15:12.915Z,5.17
2017-10-14T06:17:41.779Z,5.10
2017-10-14T06:20:10.640Z,5.60
2017-10-14T06:22:39.544Z,4.90
2017-10-14T06:25:08.407Z,6.83
2017-10-14T06:27:37.269Z,8.37
2017-10-14T06:30:06.141Z,6.23
2017-10-14T06:32:34.995Z,4.80
2017-10-14T06:35:03.866Z,4.70
2017-10-14T06:37:32.715Z,5.30
2017-10-14T06:40:01.592Z,5.37
2017-10-14T06:42:30.490Z,6.77
2017-10-14T06:44:59.447Z,6.83
2017-10-14T06:47:28.322Z,5.20
2017-10-14T06:49:57.185Z,6.53
2017-10-14T06:52:26.067Z,4.93
2017-10-14T06:54:54.918Z,5.13
2017-10-14T06:57:23.792Z,4.90
2017-10-14T06:59:52.655Z,4.90
2017-10-14T07:02:21.555Z,6.30
2017-10-14T07:04:50.404Z,4.20
2017-10-14T07:07:19.254Z,5.10
2017-10-14T07:09:48.128Z,4.90
2017-10-14T07:12:17.003Z,4.10
2017-10-14T07:14:45.874Z,4.03
2017-10-14T07:17:14.731Z,4.75
2017-10-14T07:19:43.610Z,4.50
2017-10-14T07:22:12.495Z,4.60
2017-10-14T07:24:41.392Z,5.57
2017-10-14T07:27:10.318Z,4.10
2017-10-14T07:29:39.178Z,4.93
2017-10-14T07:32:08.036Z,5.20
2017-10-14T07:34:36.886Z,5.07
2017-10-14T07:37:05.762Z,4.60
2017-10-14T07:39:34.637Z,4.30
2017-10-14T07:42:03.528Z,5.00
2017-10-14T07:44:32.383Z,4.00
2017-10-14T07:47:01.232Z,4.83
2017-10-14T07:49:30.181Z,6.20
2017-10-14T07:51:59.099Z,5.93
2017-10-14T07:54:27.967Z,7.20
2017-10-14T07:56:56.830Z,5.10
2017-10-14T07:59:25.717Z,7.13
2017-10-14T08:01:54.633Z,6.60
2017-10-14T08:04:23.494Z,6.73
2017-10-14T08:06:52.351Z,5.60
2017-10-14T08:09:21.423Z,6.13
2017-10-14T08:11:50.324Z,6.83
2017-10-14T08:14:19.185Z,6.20
2017-10-14T08:16:48.169Z,6.27
2017-10-14T08:19:17.027Z,6.43
2017-10-14T08:21:45.921Z,6.03
2017-10-14T08:24:14.771Z,6.20
2017-10-14T08:26:43.634Z,5.93
2017-10-14T08:29:12.476Z,6.33
2017-10-14T08:31:41.347Z,5.67
2017-10-14T08:34:11.126Z,5.70
2017-10-14T08:36:40.068Z,5.10
2017-10-14T08:39:08.939Z,6.00
2017-10-14T08:41:37.787Z,5.17
2017-10-14T08:44:06.669Z,5.00
2017-10-14T08:46:35.530Z,4.90
2017-10-14T08:49:04.397Z,5.57
2017-10-14T08:51:33.243Z,4.13
2017-10-14T08:54:02.262Z,4.50
2017-10-14T08:56:31.120Z,4.60
2017-10-14T08:58:59.976Z,5.43
2017-10-14T09:01:28.854Z,5.00
2017-10-14T09:03:57.698Z,4.60
2017-10-14T09:06:26.636Z,4.63
2017-10-14T09:08:55.503Z,5.10
2017-10-14T09:11:24.347Z,3.87
2017-10-14T09:13:53.215Z,4.10
2017-10-14T09:16:22.090Z,3.97
2017-10-14T09:18:51.132Z,4.20
2017-10-14T09:21:19.995Z,4.17
2017-10-14T09:23:48.846Z,4.13
2017-10-14T09:26:17.729Z,4.37
2017-10-14T09:28:46.589Z,3.83
2017-10-14T09:31:15.479Z,3.83
2017-10-14T09:33:44.338Z,4.07
2017-10-14T09:36:13.237Z,4.37
2017-10-14T09:38:42.115Z,4.53
2017-10-14T09:41:10.988Z,4.43
2017-10-14T09:43:39.866Z,4.03
2017-10-14T09:46:08.766Z,4.90
2017-10-14T09:48:37.667Z,5.93
2017-10-14T09:51:06.546Z,5.10
2017-10-14T09:53:35.429Z,5.33
2017-10-14T09:56:04.292Z,4.50
2017-10-14T09:58:33.216Z,4.00
2017-10-14T10:01:02.062Z,4.83
2017-10-14T10:03:30.924Z,4.53
2017-10-14T10:05:59.791Z,4.40
2017-10-14T10:08:28.653Z,3.90
2017-10-14T10:10:57.555Z,4.20
2017-10-14T10:13:26.410Z,4.73
2017-10-14T10:15:55.305Z,4.10
2017-10-14T10:18:24.183Z,4.63
2017-10-14T10:20:53.047Z,4.30
2017-10-14T10:23:21.942Z,4.13
2017-10-14T10:25:50.799Z,4.30
2017-10-14T10:28:19.685Z,4.10
2017-10-14T10:30:48.539Z,3.80
2017-10-14T10:33:17.428Z,5.53
2017-10-14T10:35:46.311Z,4.23
2017-10-14T10:38:15.227Z,4.40
2017-10-14T10:40:44.075Z,4.87
2017-10-14T10:43:12.925Z,4.47
2017-10-14T10:45:41.798Z,4.30
2017-10-14T10:48:10.667Z,4.10
2017-10-14T10:50:39.538Z,4.33
2017-10-14T10:53:08.410Z,3.63
2017-10-14T10:55:37.282Z,3.70
2017-10-14T10:58:06.182Z,3.70
2017-10-14T11:00:35.022Z,3.60
2017-10-14T11:03:03.893Z,3.70
2017-10-14T11:05:32.741Z,3.90
2017-10-14T11:08:01.630Z,3.50
2017-10-14T11:10:30.484Z,4.12
2017-10-14T11:12:59.360Z,3.90
2017-10-14T11:15:28.216Z,3.83
2017-10-14T11:17:57.081Z,3.97
2017-10-14T11:20:25.945Z,7.00
2017-10-14T11:22:54.805Z,4.53
2017-10-14T11:25:23.767Z,3.47
2017-10-14T11:27:52.610Z,3.90
2017-10-14T11:30:21.735Z,3.20
2017-10-14T11:32:50.598Z,3.63
2017-10-14T11:35:19.436Z,3.10
2017-10-14T11:37:48.315Z,3.10
2017-10-14T11:40:17.171Z,3.40
2017-10-14T11:42:46.046Z,3.57
2017-10-14T11:45:14.939Z,3.40
2017-10-14T11:47:43.851Z,3.70
2017-10-14T11:50:12.705Z,3.67
2017-10-14T11:52:41.562Z,4.20
2017-10-14T11:55:10.438Z,3.80
2017-10-14T11:57:39.294Z,3.70
2017-10-14T12:00:08.153Z,3.30
2017-10-14T12:02:37.034Z,3.50
2017-10-14T12:05:05.907Z,2.93
2017-10-14T12:07:34.797Z,3.20
2017-10-14T12:10:03.654Z,3.20
2017-10-14T12:12:32.515Z,3.20
2017-10-14T12:15:01.366Z,2.83
2017-10-14T12:17:30.228Z,2.60
2017-10-14T12:19:59.087Z,3.70
2017-10-14T12:22:27.970Z,3.40
2017-10-14T12:24:56.845Z,4.03
2017-10-14T12:27:25.711Z,3.70
2017-10-14T12:29:54.590Z,2.23
2017-10-14T12:32:23.462Z,2.90
2017-10-14T12:34:52.349Z,2.40
2017-10-14T12:37:21.205Z,2.77
2017-10-14T12:39:50.086Z,2.67
2017-10-14T12:42:18.938Z,2.30
2017-10-14T12:44:47.783Z,2.90
2017-10-14T12:47:16.646Z,3.23
2017-10-14T12:49:45.502Z,2.70
2017-10-14T12:52:14.375Z,2.77
2017-10-14T12:54:43.223Z,2.43
2017-10-14T12:57:12.127Z,1.83
2017-10-14T12:59:40.966Z,2.60
2017-10-14T13:02:09.821Z,2.30
2017-10-14T13:04:38.711Z,2.93
2017-10-14T13:07:07.558Z,2.40
2017-10-14T13:09:36.428Z,2.50
2017-10-14T13:12:05.282Z,2.80
2017-10-14T13:14:34.160Z,2.50
2017-10-14T13:17:03.059Z,2.20
2017-10-14T13:19:31.913Z,2.70
2017-10-14T13:22:00.779Z,3.63
2017-10-14T13:24:29.649Z,3.07
2017-10-14T13:26:58.526Z,2.87
2017-10-14T13:29:27.405Z,3.27
2017-10-14T13:31:56.292Z,2.87
2017-10-14T13:34:25.199Z,5.67
2017-10-14T13:36:54.195Z,3.40
2017-10-14T13:39:23.067Z,2.63
2017-10-14T13:41:51.934Z,14.23
2017-10-14T13:44:20.874Z,5.40
2017-10-14T13:46:49.743Z,9.83
2017-10-14T13:49:18.632Z,4.97
2017-10-14T13:51:47.506Z,3.60
2017-10-14T13:54:16.366Z,4.20
2017-10-14T13:56:45.235Z,3.13
2017-10-14T13:59:14.079Z,3.10
2017-10-14T14:01:43.273Z,2.70
2017-10-14T14:04:12.109Z,3.80
2017-10-14T14:06:40.998Z,3.90
2017-10-14T14:09:09.851Z,3.23
2017-10-14T14:11:38.739Z,3.10
2017-10-14T14:14:07.653Z,3.17
2017-10-14T14:16:36.494Z,4.90
2017-10-14T14:19:05.382Z,3.97
2017-10-14T14:21:34.241Z,5.17
2017-10-14T14:24:03.283Z,3.97
2017-10-14T14:26:32.168Z,3.47
2017-10-14T14:29:01.011Z,2.90
2017-10-14T14:31:29.875Z,3.53
2017-10-14T14:33:58.748Z,3.40
2017-10-14T14:36:27.712Z,4.40
2017-10-14T14:38:56.562Z,3.10
2017-10-14T14:41:25.447Z,3.43
2017-10-14T14:43:54.318Z,3.60
2017-10-14T14:46:23.174Z,4.57
2017-10-14T14:48:52.046Z,3.90
2017-10-14T14:51:20.885Z,3.63
2017-10-14T14:53:49.769Z,3.90
2017-10-14T14:56:18.614Z,4.17
2017-10-14T14:58:47.616Z,3.67
2017-10-14T15:01:16.485Z,3.50
2017-10-14T15:03:45.353Z,3.40
2017-10-14T15:06:14.212Z,3.40
2017-10-14T15:08:43.078Z,4.73
2017-10-14T15:11:11.941Z,3.90
2017-10-14T15:13:40.799Z,4.80
2017-10-14T15:16:09.694Z,3.70
2017-10-14T15:18:38.552Z,3.70
2017-10-14T15:21:07.439Z,3.40
2017-10-14T15:23:36.302Z,3.30
2017-10-14T15:26:05.158Z,3.43
2017-10-14T15:28:34.042Z,4.27
2017-10-14T15:31:02.916Z,3.53
2017-10-14T15:33:31.854Z,4.20
2017-10-14T15:36:00.740Z,3.70
2017-10-14T15:38:29.594Z,3.63
2017-10-14T15:40:58.488Z,3.93
2017-10-14T15:43:27.334Z,5.00
2017-10-14T15:45:56.206Z,5.23
2017-10-14T15:48:25.087Z,5.77
2017-10-14T15:50:53.987Z,4.43
2017-10-14T15:53:22.853Z,4.50
2017-10-14T15:55:51.721Z,5.80
2017-10-14T15:58:20.597Z,5.37
2017-10-14T16:00:49.454Z,5.63
2017-10-14T16:03:18.356Z,5.30
2017-10-14T16:05:47.218Z,6.03
2017-10-14T16:08:16.125Z,5.90
2017-10-14T16:10:44.971Z,6.20
2017-10-14T16:13:13.844Z,6.03
2017-10-14T16:15:42.727Z,6.53
2017-10-14T16:18:11.591Z,6.40
2017-10-14T16:20:40.491Z,6.53
2017-10-14T16:23:09.367Z,7.97
2017-10-14T16:25:38.261Z,7.97
2017-10-14T16:28:07.134Z,7.40
2017-10-14T16:30:35.995Z,7.10
2017-10-14T16:33:04.875Z,7.50
2017-10-14T16:35:33.740Z,8.23
2017-10-14T16:38:02.611Z,8.23
2017-10-14T16:40:31.495Z,7.90
2017-10-14T16:43:00.374Z,8.90
2017-10-14T16:45:29.263Z,8.10
2017-10-14T16:47:58.111Z,8.17
2017-10-14T16:50:26.992Z,9.00
2017-10-14T16:52:55.856Z,8.37
2017-10-14T16:55:24.738Z,10.70
2017-10-14T16:57:53.610Z,10.47
2017-10-14T17:00:22.510Z,10.20
2017-10-14T17:02:51.367Z,8.63
2017-10-14T17:05:20.241Z,8.90
2017-10-14T17:07:49.153Z,9.50
2017-10-14T17:10:18.042Z,13.60
2017-10-14T17:12:46.931Z,10.10
2017-10-14T17:15:15.795Z,11.10
2017-10-14T17:17:44.751Z,9.90
2017-10-14T17:20:13.611Z,11.37
2017-10-14T17:22:42.467Z,10.00
2017-10-14T17:25:11.340Z,10.83
2017-10-14T17:27:40.214Z,8.90
2017-10-14T17:30:09.083Z,9.30
2017-10-14T17:32:37.966Z,10.57
2017-10-14T17:35:06.843Z,11.13
2017-10-14T17:37:35.739Z,11.40
2017-10-14T17:40:04.642Z,10.80
2017-10-14T17:42:33.508Z,14.10
2017-10-14T17:45:02.419Z,12.37
2017-10-14T17:47:31.290Z,11.97
2017-10-14T17:50:00.641Z,10.53
2017-10-14T17:52:29.556Z,12.03
2017-10-14T17:54:58.568Z,9.90
2017-10-14T17:57:27.453Z,10.67
2017-10-14T17:59:56.335Z,10.20
2017-10-14T18:02:25.766Z,10.30
2017-10-14T18:04:54.620Z,11.80
2017-10-14T18:07:23.507Z,9.87
2017-10-14T18:09:52.385Z,12.37
2017-10-14T18:12:21.240Z,13.83
2017-10-14T18:14:50.587Z,12.97
2017-10-14T18:17:19.462Z,14.13
2017-10-14T18:19:48.370Z,14.47
2017-10-14T18:22:17.240Z,15.90
2017-10-14T18:24:46.095Z,13.80
2017-10-14T18:27:15.002Z,13.10
2017-10-14T18:29:43.868Z,11.47
2017-10-14T18:32:12.758Z,12.07
2017-10-14T18:34:41.636Z,10.60
2017-10-14T18:37:10.535Z,11.60
2017-10-14T18:39:39.431Z,11.50
2017-10-14T18:42:08.307Z,17.63
2017-10-14T18:44:37.194Z,13.93
2017-10-14T18:47:06.062Z,15.90
2017-10-14T18:49:34.947Z,13.57
2017-10-14T18:52:03.807Z,13.50
2017-10-14T18:54:32.740Z,13.60
2017-10-14T18:57:01.602Z,14.67
2017-10-14T18:59:30.479Z,16.90
2017-10-14T19:01:59.347Z,15.57
2017-10-14T19:04:28.208Z,14.07
2017-10-14T19:06:57.074Z,14.50
2017-10-14T19:09:25.962Z,13.47
2017-10-14T19:11:54.876Z,13.23
2017-10-14T19:14:23.765Z,15.00
2017-10-14T19:16:52.638Z,14.67
2017-10-14T19:19:21.570Z,16.60
2017-10-14T19:21:50.434Z,14.93
2017-10-14T19:24:19.357Z,15.33
2017-10-14T19:26:48.242Z,17.80
2017-10-14T19:29:17.128Z,15.67
2017-10-14T19:31:45.994Z,14.90
2017-10-14T19:34:14.855Z,14.13
2017-10-14T19:36:43.801Z,13.30
2017-10-14T19:39:12.671Z,12.47
2017-10-14T19:41:41.578Z,12.80
2017-10-14T19:44:10.446Z,13.77
2017-10-14T19:46:39.338Z,12.70
2017-10-14T19:51:43.792Z,11.70
2017-10-14T19:54:12.660Z,12.30
2017-10-14T19:56:41.574Z,10.93
2017-10-14T19:59:10.478Z,10.50
2017-10-14T20:01:39.345Z,10.73
2017-10-14T20:04:08.249Z,14.53
2017-10-14T20:06:37.130Z,13.37
2017-10-14T20:09:06.098Z,13.20
2017-10-14T20:11:34.988Z,13.83
2017-10-14T20:14:03.877Z,14.53
2017-10-14T20:16:32.765Z,11.60
2017-10-14T20:19:01.653Z,13.23
2017-10-14T20:21:30.531Z,12.50
2017-10-14T20:23:59.414Z,13.20
2017-10-14T20:26:28.323Z,14.10
2017-10-14T20:28:57.203Z,12.73
2017-10-14T20:31:26.075Z,10.80
2017-10-14T20:33:54.954Z,12.90
2017-10-14T20:36:23.810Z,13.47
2017-10-14T20:38:52.702Z,13.60
2017-10-14T20:41:21.588Z,12.87
2017-10-14T20:43:50.480Z,15.70
2017-10-14T20:46:19.366Z,13.80
2017-10-14T20:48:48.235Z,13.97
2017-10-14T20:51:17.130Z,15.07
2017-10-14T20:53:45.987Z,15.07
2017-10-14T20:56:14.855Z,14.20
2017-10-14T20:58:43.750Z,13.43
2017-10-14T21:01:12.679Z,15.70
2017-10-14T21:03:41.596Z,14.63
2017-10-14T21:06:10.507Z,13.53
2017-10-14T21:08:39.398Z,12.73
2017-10-14T21:11:08.284Z,11.37
2017-10-14T21:13:37.156Z,12.17
2017-10-14T21:16:06.031Z,10.47
2017-10-14T21:18:34.913Z,11.90
2017-10-14T21:21:03.793Z,16.27
2017-10-14T21:23:32.642Z,11.77
2017-10-14T21:26:01.513Z,11.30
2017-10-14T21:28:30.393Z,11.40
2017-10-14T21:30:59.279Z,11.70
2017-10-14T21:33:28.166Z,11.37
2017-10-14T21:35:57.035Z,10.90
2017-10-14T21:38:25.929Z,10.43
2017-10-14T21:40:54.803Z,11.07
2017-10-14T21:43:23.721Z,10.93
2017-10-14T21:45:52.597Z,11.97
2017-10-14T21:48:21.561Z,12.47
2017-10-14T21:50:50.478Z,16.57
2017-10-14T21:53:19.379Z,11.80
2017-10-14T21:55:48.246Z,12.00
2017-10-14T21:58:17.134Z,10.47
2017-10-14T22:00:46.023Z,11.07
2017-10-14T22:03:14.899Z,12.20
2017-10-14T22:05:43.763Z,12.10
2017-10-14T22:08:12.671Z,12.67
2017-10-14T22:10:41.519Z,11.73
2017-10-14T22:13:10.428Z,12.40
2017-10-14T22:15:39.311Z,11.73
2017-10-14T22:18:08.621Z,12.67
2017-10-14T22:20:37.511Z,11.30
2017-10-14T22:23:06.378Z,11.43
2017-10-14T22:25:35.514Z,10.73
2017-10-14T22:28:05.254Z,10.90
2017-10-14T22:30:34.148Z,12.03
2017-10-14T22:33:03.046Z,11.20
2017-10-14T22:35:31.915Z,11.70
2017-10-14T22:38:00.808Z,11.23
2017-10-14T22:40:29.654Z,12.20
2017-10-14T22:42:58.612Z,11.83
2017-10-14T22:45:27.469Z,11.00
2017-10-14T22:47:56.328Z,11.40
2017-10-14T22:50:25.216Z,10.50
2017-10-14T22:52:54.073Z,9.60
2017-10-14T22:55:22.947Z,11.43
2017-10-14T22:57:51.872Z,11.93
2017-10-14T23:00:20.828Z,12.97
2017-10-14T23:02:49.700Z,11.73
2017-10-14T23:05:18.606Z,11.20
2017-10-14T23:07:47.496Z,13.10
2017-10-14T23:10:16.370Z,14.10
2017-10-14T23:12:45.262Z,14.30
2017-10-14T23:15:14.136Z,10.80
2017-10-14T23:17:43.023Z,9.47
2017-10-14T23:20:11.894Z,10.60
2017-10-14T23:22:40.742Z,9.30
2017-10-14T23:25:09.623Z,10.37
2017-10-14T23:27:38.470Z,10.10
2017-10-14T23:30:07.363Z,9.13
2017-10-14T23:32:36.222Z,11.07
2017-10-14T23:35:05.095Z,10.97
2017-10-14T23:37:33.959Z,11.77
2017-10-14T23:40:02.884Z,10.67
2017-10-14T23:42:31.753Z,12.10
2017-10-14T23:45:00.607Z,10.27
2017-10-14T23:47:29.475Z,10.63
2017-10-14T23:49:58.326Z,10.77
2017-10-14T23:52:27.230Z,11.37
2017-10-14T23:54:56.131Z,10.20
2017-10-14T23:57:25.037Z,9.80
2017-10-14T23:59:53.977Z,10.27
